Terminal Aerodrome Forecast
Issued by NWS

Home | Current Version | Previous Version | Text Only | Print | Product List | Glossary On
Versions: 1 2 3 4 5 6 7 8 9 10 11 12 13 14 15 16 17 18 19 20 21 22 23 24 25 26 27 28 29 30 31 32 33 34 35 36 37 38 39 40 41 42 43 44
000
FTUS43 KGLD 241137
TAFMCK
TAF
KMCK 241137Z 2412/2512 03022G32KT 6SM BR OVC008
     FM241400 03022G30KT P6SM -SHRA OVC006
     FM242000 36022G31KT 3SM -SHRA BR OVC004
     FM250000 01014G22KT P6SM VCSH BKN015
     FM250600 34011KT P6SM BKN020
     FM250900 34011KT P6SM SCT035=

USA.gov is the U.S. government's official web portal to all federal, state and local government web resources and services.